createdAt,value
2017-06-21T17:55:33.209Z,23.78
2017-06-21T17:56:13.836Z,23.76
2017-06-21T17:56:55.037Z,23.73
2017-06-21T17:57:35.607Z,23.71
2017-06-21T17:58:16.185Z,23.63
2017-06-21T17:58:57.001Z,23.71
2017-06-21T17:59:37.580Z,23.73
2017-06-21T18:00:18.202Z,23.69
2017-06-21T18:00:58.795Z,23.68
2017-06-21T18:01:39.428Z,23.73
2017-06-21T18:02:20.139Z,23.69
2017-06-21T18:03:00.729Z,23.71
2017-06-21T18:03:41.309Z,23.74
2017-06-21T18:04:21.900Z,23.68
2017-06-21T18:05:02.488Z,23.63
2017-06-21T18:05:43.235Z,23.69
2017-06-21T18:06:23.676Z,23.62
2017-06-21T18:07:04.259Z,23.74
2017-06-21T18:07:44.855Z,23.71
2017-06-21T18:08:25.508Z,23.65
2017-06-21T18:09:06.218Z,23.63
2017-06-21T18:09:46.861Z,23.61
2017-06-21T18:10:27.609Z,23.65
2017-06-21T18:11:08.227Z,23.61
2017-06-21T18:11:48.814Z,23.59
2017-06-21T18:12:29.407Z,23.63
2017-06-21T18:13:10.086Z,23.63
2017-06-21T18:13:50.672Z,23.66
2017-06-21T18:14:31.264Z,23.66
2017-06-21T18:15:11.851Z,23.65
2017-06-21T18:15:52.530Z,23.63
2017-06-21T18:16:33.111Z,23.59
2017-06-21T18:17:13.693Z,23.59
2017-06-21T18:17:54.275Z,23.62
2017-06-21T18:18:34.874Z,23.61
2017-06-21T18:19:15.494Z,23.63
2017-06-21T18:19:56.067Z,23.61
2017-06-21T18:20:36.655Z,23.56
2017-06-21T18:21:17.242Z,23.61
2017-06-21T18:21:57.868Z,23.62
2017-06-21T18:22:38.407Z,23.62
2017-06-21T18:23:18.999Z,23.62
2017-06-21T18:23:59.605Z,23.54
2017-06-21T18:24:40.196Z,23.55
2017-06-21T18:25:20.819Z,23.56
2017-06-21T18:26:01.404Z,23.56
2017-06-21T18:26:41.992Z,23.51
2017-06-21T18:27:22.574Z,23.55
2017-06-21T18:28:03.193Z,23.62
2017-06-21T18:28:43.775Z,23.58
2017-06-21T18:29:24.369Z,23.66
2017-06-21T18:30:04.947Z,23.55
2017-06-21T18:30:45.618Z,23.55
2017-06-21T18:31:26.220Z,23.62
2017-06-21T18:32:06.813Z,23.58
2017-06-21T18:32:47.395Z,23.62
2017-06-21T18:33:27.978Z,23.55
2017-06-21T18:34:08.603Z,23.56
2017-06-21T18:34:49.290Z,23.59
2017-06-21T18:35:29.868Z,23.54
2017-06-21T18:36:10.454Z,23.55
2017-06-21T18:36:51.069Z,23.59
2017-06-21T18:37:31.669Z,23.61
2017-06-21T18:38:12.301Z,23.61
2017-06-21T18:38:52.877Z,23.54
2017-06-21T18:39:33.469Z,23.55
2017-06-21T18:40:18.327Z,23.59
2017-06-21T18:42:12.529Z,23.51
2017-06-21T18:42:53.176Z,23.5
2017-06-21T18:43:33.764Z,23.55
2017-06-21T18:44:14.366Z,23.5
2017-06-21T18:44:54.987Z,23.47
2017-06-21T18:45:35.582Z,23.5
2017-06-21T18:46:16.155Z,23.51
2017-06-21T18:46:56.753Z,23.46
2017-06-21T18:47:37.349Z,23.47
2017-06-21T18:48:17.941Z,23.5
2017-06-21T18:48:58.521Z,23.4
2017-06-21T18:49:39.117Z,23.44
2017-06-21T18:50:19.722Z,23.48
2017-06-21T18:51:00.350Z,23.5
2017-06-21T18:51:40.975Z,23.43
2017-06-21T18:52:21.536Z,23.4
2017-06-21T18:53:02.134Z,23.44
2017-06-21T18:53:42.716Z,23.41
2017-06-21T18:54:23.313Z,23.37
2017-06-21T18:55:04.440Z,23.41
2017-06-21T18:55:44.872Z,23.46
2017-06-21T18:56:25.468Z,23.47
2017-06-21T18:57:06.057Z,23.39
2017-06-21T18:57:46.750Z,23.44
2017-06-21T18:58:27.262Z,23.41
2017-06-21T18:59:07.843Z,23.28
2017-06-21T18:59:48.425Z,23.37
2017-06-21T19:00:29.014Z,23.37
2017-06-21T19:01:09.661Z,23.32
2017-06-21T19:01:50.266Z,23.34
2017-06-21T19:02:30.909Z,23.32
2017-06-21T19:03:11.495Z,23.36
2017-06-21T19:03:52.087Z,23.34
2017-06-21T19:04:32.676Z,23.34
2017-06-21T19:05:13.262Z,23.39
2017-06-21T19:05:53.849Z,23.36
2017-06-21T19:06:34.441Z,23.25
2017-06-21T19:07:15.163Z,23.32
2017-06-21T19:07:56.091Z,23.31
2017-06-21T19:08:37.243Z,23.31
2017-06-21T19:09:18.045Z,23.25
2017-06-21T19:09:58.728Z,23.28
2017-06-21T19:10:39.327Z,23.25
2017-06-21T19:11:19.948Z,23.28
2017-06-21T19:12:00.535Z,23.23
2017-06-21T19:12:41.161Z,23.2
2017-06-21T19:13:21.759Z,23.25
2017-06-21T19:14:02.350Z,23.18
2017-06-21T19:14:42.940Z,23.17
2017-06-21T19:15:23.608Z,23.17
2017-06-21T19:16:04.192Z,23.21
2017-06-21T19:16:44.959Z,23.2
2017-06-21T19:17:25.731Z,23.2
2017-06-21T19:18:09.014Z,23.1
2017-06-21T19:18:50.054Z,23.13
2017-06-21T19:19:30.768Z,23.1
2017-06-21T19:20:11.634Z,23.13
2017-06-21T19:20:52.276Z,23.06
2017-06-21T19:21:32.974Z,23.09
2017-06-21T19:22:13.787Z,23.13
2017-06-21T19:22:54.423Z,23.1
2017-06-21T19:23:36.181Z,23.12
2017-06-21T19:24:15.875Z,23.13
2017-06-21T19:24:56.735Z,23.15
2017-06-21T19:25:37.415Z,23.15
2017-06-21T19:26:18.254Z,23.15
2017-06-21T19:27:00.164Z,23.17
2017-06-21T19:27:41.153Z,23.1
2017-06-21T19:28:22.043Z,23.24
2017-06-21T19:29:02.999Z,23.18
2017-06-21T19:29:44.221Z,23.12
2017-06-21T19:30:25.327Z,23.24
2017-06-21T19:31:05.998Z,23.15
2017-06-21T19:31:46.598Z,23.09
2017-06-21T19:32:27.408Z,23.15
2017-06-21T19:33:08.011Z,23.13
2017-06-21T19:33:48.638Z,23.13
2017-06-21T19:34:29.291Z,23.12
2017-06-21T19:35:09.879Z,23.15
2017-06-21T19:35:50.691Z,23.13
2017-06-21T19:36:31.273Z,23.1
2017-06-21T19:37:11.865Z,23.12
2017-06-21T19:37:52.457Z,23.12
2017-06-21T19:38:33.077Z,23.15
2017-06-21T19:39:13.716Z,23.12
2017-06-21T19:39:54.417Z,23.18
2017-06-21T19:40:35.093Z,23.17
2017-06-21T19:41:15.972Z,23.08
2017-06-21T19:41:56.625Z,23.06
2017-06-21T19:42:37.300Z,23.17
2017-06-21T19:43:18.031Z,23.13
2017-06-21T19:43:58.691Z,23.09
2017-06-21T19:44:39.300Z,23.17
2017-06-21T19:45:19.932Z,23.13
2017-06-21T19:46:00.609Z,23.13
2017-06-21T19:46:41.351Z,23.08
2017-06-21T19:47:22.162Z,23.17
2017-06-21T19:48:02.926Z,23.13
2017-06-21T19:48:43.629Z,23.12
2017-06-21T19:49:24.372Z,23.13
2017-06-21T19:50:05.627Z,23.09
2017-06-21T19:50:45.989Z,23.12
2017-06-21T19:51:26.617Z,23.15
2017-06-21T19:52:07.269Z,23.09
2017-06-21T19:52:48.062Z,23.09
2017-06-21T19:53:28.711Z,23.1
2017-06-21T19:54:09.992Z,23.09
2017-06-21T19:54:50.850Z,23
2017-06-21T19:55:31.598Z,23.09
2017-06-21T19:56:12.262Z,23.12
2017-06-21T19:56:52.865Z,23.1
2017-06-21T19:57:33.461Z,23.08
2017-06-21T19:58:14.069Z,23.13
2017-06-21T19:58:54.655Z,23.08
2017-06-21T19:59:46.234Z,23.08
2017-06-21T20:00:29.991Z,23.05
2017-06-21T20:01:11.781Z,23.12
2017-06-21T20:01:52.387Z,23.05
2017-06-21T20:02:32.963Z,23.03
2017-06-21T20:03:13.554Z,23
2017-06-21T20:03:54.193Z,23.08
2017-06-21T20:04:37.172Z,22.96
2017-06-21T20:05:17.741Z,23.05
2017-06-21T20:05:58.336Z,22.99
2017-06-21T20:06:38.960Z,22.94
